Time;durP1;ratioP1;P1;durP2;ratioP2;P2;SDS_P1;SDS_P2;PMS_P1;PMS_P2;Temp;Humidity;BMP_temperature;BMP_pressure;BME280_temperature;BME280_humidity;BME280_pressure;Samples;Min_cycle;Max_cycle;Signal;HPM_P1;HPM_P2
2023/04/04 00:00:30;;;;;;;;;;;4.90;66.50;;;;;;9185292;19;20337;-69
2023/04/04 00:03:35;;;;;;;;;;;4.90;66.50;;;;;;9183990;19;19918;-69
2023/04/04 00:06:43;;;;;;;;;;;4.90;66.50;;;;;;9185299;19;19926;-70
2023/04/04 00:09:49;;;;;;;;;;;4.80;66.50;;;;;;9183062;19;19947;-70
2023/04/04 00:12:55;;;;;;;;;;;4.80;66.50;;;;;;9184178;19;19923;-70
2023/04/04 00:16:01;;;;;;;;;;;4.80;66.50;;;;;;9184311;19;19915;-70
2023/04/04 00:19:05;;;;;;;;;;;4.80;67.20;;;;;;9184533;19;19936;-70
2023/04/04 00:22:12;;;;;;;;;;;4.70;66.50;;;;;;9184645;19;19926;-70
2023/04/04 00:25:16;;;;;;;;;;;4.70;66.60;;;;;;9181222;19;20636;-70
2023/04/04 00:28:24;;;;;;;;;;;4.70;66.50;;;;;;9179202;19;19919;-69
2023/04/04 00:31:28;;;;;;;;;;;4.70;66.60;;;;;;9177052;19;19978;-70
2023/04/04 00:34:35;;;;;;;;;;;4.70;66.60;;;;;;9178697;19;19915;-70
2023/04/04 00:37:39;;;;;;;;;;;4.60;66.60;;;;;;9178134;19;19915;-70
2023/04/04 00:40:46;;;;;;;;;;;4.60;66.70;;;;;;9179626;19;20325;-70
2023/04/04 00:43:52;;;;;;;;;;;4.60;66.60;;;;;;9175393;19;19919;-70
2023/04/04 00:46:58;;;;;;;;;;;4.60;66.70;;;;;;9183854;19;19915;-70
2023/04/04 00:50:02;;;;;;;;;;;4.50;66.70;;;;;;9182257;19;19915;-70
2023/04/04 00:53:09;;;;;;;;;;;4.50;66.70;;;;;;9184300;19;19915;-70
2023/04/04 00:56:13;;;;;;;;;;;4.50;66.70;;;;;;9182461;19;19918;-70
2023/04/04 00:59:22;;;;;;;;;;;4.50;66.80;;;;;;9183376;19;19910;-70
2023/04/04 01:02:26;;;;;;;;;;;4.50;66.80;;;;;;9180436;19;19927;-69
2023/04/04 01:05:33;;;;;;;;;;;4.50;66.80;;;;;;9179381;19;20246;-70
2023/04/04 01:08:38;;;;;;;;;;;4.40;66.70;;;;;;9181709;19;19921;-69
2023/04/04 01:11:44;;;;;;;;;;;4.40;66.80;;;;;;9182824;19;20336;-70
2023/04/04 01:14:50;;;;;;;;;;;4.40;67.40;;;;;;9180999;19;20329;-69
2023/04/04 01:17:57;;;;;;;;;;;4.30;66.80;;;;;;9182470;19;19919;-69
2023/04/04 01:21:03;;;;;;;;;;;4.30;66.80;;;;;;9182301;19;19930;-70
2023/04/04 01:24:11;;;;;;;;;;;4.30;66.80;;;;;;9180553;19;19923;-69
2023/04/04 01:27:25;;;;;;;;;;;4.20;66.80;;;;;;9181036;19;20300;-70
2023/04/04 01:30:37;;;;;;;;;;;4.20;66.80;;;;;;9180793;19;19926;-70
2023/04/04 01:33:46;;;;;;;;;;;4.20;66.90;;;;;;9181674;19;20329;-70
2023/04/04 01:36:58;;;;;;;;;;;4.20;66.80;;;;;;9182207;19;19918;-69
2023/04/04 01:40:06;;;;;;;;;;;4.10;66.80;;;;;;9179531;19;19919;-70
2023/04/04 01:43:15;;;;;;;;;;;4.10;66.80;;;;;;9175292;19;20340;-69
2023/04/04 01:46:21;;;;;;;;;;;4.00;66.70;;;;;;9179959;19;19978;-69
2023/04/04 01:49:28;;;;;;;;;;;4.00;66.70;;;;;;9180448;19;19919;-70
2023/04/04 01:52:33;;;;;;;;;;;4.00;66.70;;;;;;9180648;19;19923;-69
2023/04/04 01:55:39;;;;;;;;;;;4.00;66.90;;;;;;9178390;19;19923;-69
2023/04/04 01:58:45;;;;;;;;;;;3.90;66.80;;;;;;9179925;19;19918;-70
2023/04/04 02:01:51;;;;;;;;;;;3.90;66.90;;;;;;9180237;19;19919;-70
2023/04/04 02:04:55;;;;;;;;;;;3.90;66.90;;;;;;9179153;19;19926;-70
2023/04/04 02:08:01;;;;;;;;;;;3.90;67.00;;;;;;9181080;19;20337;-69
2023/04/04 02:11:17;;;;;;;;;;;3.80;66.80;;;;;;9180531;19;19929;-70
2023/04/04 02:14:25;;;;;;;;;;;3.80;66.80;;;;;;9182942;19;19915;-70
2023/04/04 02:17:29;;;;;;;;;;;3.80;66.90;;;;;;9181375;19;19923;-70
2023/04/04 02:20:36;;;;;;;;;;;3.80;66.90;;;;;;9181922;19;19926;-69
2023/04/04 02:23:40;;;;;;;;;;;3.80;66.90;;;;;;9178817;19;19919;-69
2023/04/04 02:26:47;;;;;;;;;;;3.80;66.90;;;;;;9179987;19;19919;-69
2023/04/04 02:29:54;;;;;;;;;;;3.80;66.90;;;;;;9179506;19;19926;-69
2023/04/04 02:33:00;;;;;;;;;;;3.70;66.90;;;;;;9178237;19;19915;-70
2023/04/04 02:36:04;;;;;;;;;;;3.70;67.00;;;;;;9176368;19;19926;-69
2023/04/04 02:39:10;;;;;;;;;;;3.70;67.00;;;;;;9179790;19;19915;-69
2023/04/04 02:42:16;;;;;;;;;;;3.70;67.00;;;;;;9179364;19;20377;-69
2023/04/04 02:45:25;;;;;;;;;;;3.70;67.00;;;;;;9170567;19;19918;-70
2023/04/04 02:48:42;;;;;;;;;;;3.70;67.00;;;;;;9178081;19;19929;-69
2023/04/04 02:51:49;;;;;;;;;;;3.60;67.00;;;;;;9177975;19;20369;-69
2023/04/04 02:54:53;;;;;;;;;;;3.60;67.00;;;;;;9180489;19;20396;-69
2023/04/04 02:58:08;;;;;;;;;;;3.60;67.00;;;;;;9179951;19;19922;-69
2023/04/04 03:01:14;;;;;;;;;;;3.60;67.00;;;;;;9179662;19;20001;-69
2023/04/04 03:04:20;;;;;;;;;;;3.60;67.00;;;;;;9177092;19;19923;-69
2023/04/04 03:07:24;;;;;;;;;;;3.50;67.00;;;;;;9177963;19;19926;-69
2023/04/04 03:10:32;;;;;;;;;;;3.50;67.00;;;;;;9177951;19;19915;-69
2023/04/04 03:13:36;;;;;;;;;;;3.50;67.00;;;;;;9177526;19;19927;-69
2023/04/04 03:16:44;;;;;;;;;;;3.50;67.00;;;;;;9178398;19;19938;-69
2023/04/04 03:19:48;;;;;;;;;;;3.40;67.00;;;;;;9177067;19;19948;-70
2023/04/04 03:22:54;;;;;;;;;;;3.40;67.10;;;;;;9177011;19;19919;-69
2023/04/04 03:25:58;;;;;;;;;;;3.40;67.10;;;;;;9173938;19;19914;-69
2023/04/04 03:29:05;;;;;;;;;;;3.40;67.00;;;;;;9178515;19;20340;-69
2023/04/04 03:32:11;;;;;;;;;;;3.40;67.00;;;;;;9177445;19;19933;-69
2023/04/04 03:35:17;;;;;;;;;;;3.40;67.10;;;;;;9177127;19;19915;-69
2023/04/04 03:38:21;;;;;;;;;;;3.30;67.00;;;;;;9176388;19;19938;-69
2023/04/04 03:41:27;;;;;;;;;;;3.30;67.00;;;;;;9178039;19;19911;-69
2023/04/04 03:44:31;;;;;;;;;;;3.30;67.00;;;;;;9170919;19;19918;-69
2023/04/04 03:47:39;;;;;;;;;;;3.30;67.10;;;;;;9175916;19;19915;-69
2023/04/04 03:50:43;;;;;;;;;;;3.30;67.10;;;;;;9175990;19;20283;-69
2023/04/04 03:53:48;;;;;;;;;;;3.20;67.10;;;;;;9176631;19;19915;-69
2023/04/04 03:56:53;;;;;;;;;;;3.20;67.10;;;;;;9177559;19;19923;-69
2023/04/04 03:59:59;;;;;;;;;;;3.20;67.10;;;;;;9175086;19;19923;-69
2023/04/04 04:03:05;;;;;;;;;;;3.10;67.10;;;;;;9176186;19;19936;-69
2023/04/04 04:06:11;;;;;;;;;;;3.10;67.10;;;;;;9172430;19;19922;-70
2023/04/04 04:09:15;;;;;;;;;;;3.10;67.20;;;;;;9174729;19;19916;-69
2023/04/04 04:12:21;;;;;;;;;;;3.00;67.10;;;;;;9176345;19;19922;-69
2023/04/04 04:15:28;;;;;;;;;;;3.00;67.10;;;;;;9173750;19;19921;-70
2023/04/04 04:18:39;;;;;;;;;;;3.00;67.10;;;;;;9177778;19;19915;-69
2023/04/04 04:21:47;;;;;;;;;;;3.00;67.10;;;;;;9183244;19;19914;-69
2023/04/04 04:24:54;;;;;;;;;;;2.90;67.10;;;;;;9183957;19;19926;-69
2023/04/04 04:27:58;;;;;;;;;;;2.90;67.10;;;;;;9184242;19;19918;-70
2023/04/04 04:31:06;;;;;;;;;;;2.90;67.10;;;;;;9179784;19;20340;-69
2023/04/04 04:34:13;;;;;;;;;;;2.90;67.10;;;;;;9183962;19;19965;-69
2023/04/04 04:37:21;;;;;;;;;;;2.90;67.20;;;;;;9182676;19;20321;-69
2023/04/04 04:40:28;;;;;;;;;;;2.80;67.10;;;;;;9182611;19;19923;-69
2023/04/04 04:43:40;;;;;;;;;;;2.80;67.20;;;;;;9177839;19;19919;-69
2023/04/04 04:46:44;;;;;;;;;;;2.80;67.20;;;;;;9180169;19;19933;-69
2023/04/04 04:49:55;;;;;;;;;;;2.80;67.20;;;;;;9181772;19;19915;-69
2023/04/04 04:53:10;;;;;;;;;;;2.70;67.20;;;;;;9180604;19;19922;-69
2023/04/04 04:56:16;;;;;;;;;;;2.70;67.20;;;;;;9182510;19;19919;-69
2023/04/04 04:59:23;;;;;;;;;;;2.70;67.20;;;;;;9181869;19;19940;-69
2023/04/04 05:02:30;;;;;;;;;;;2.60;67.10;;;;;;9177804;19;19919;-69
2023/04/04 05:05:36;;;;;;;;;;;2.60;67.10;;;;;;9171451;19;20280;-69
2023/04/04 05:08:47;;;;;;;;;;;2.60;67.20;;;;;;9172692;19;20476;-69
2023/04/04 05:12:12;;;;;;;;;;;2.60;67.20;;;;;;9176782;19;20264;-69
2023/04/04 05:15:24;;;;;;;;;;;2.50;67.20;;;;;;9177938;19;20263;-68
2023/04/04 05:18:28;;;;;;;;;;;2.50;67.20;;;;;;9180047;19;19954;-68
2023/04/04 05:21:37;;;;;;;;;;;2.50;67.20;;;;;;9181615;19;19926;-69
2023/04/04 05:24:45;;;;;;;;;;;2.50;67.30;;;;;;9179567;19;20262;-69
2023/04/04 05:27:54;;;;;;;;;;;2.50;67.30;;;;;;9180906;19;19922;-68
2023/04/04 05:30:58;;;;;;;;;;;2.50;67.30;;;;;;9181597;19;20267;-68
2023/04/04 05:34:07;;;;;;;;;;;2.40;67.30;;;;;;9179368;19;19934;-68
2023/04/04 05:37:13;;;;;;;;;;;2.50;67.30;;;;;;9181016;19;19915;-68
2023/04/04 05:40:23;;;;;;;;;;;2.50;67.30;;;;;;9181515;19;19923;-69
2023/04/04 05:43:35;;;;;;;;;;;2.50;67.40;;;;;;9177649;19;19930;-69
2023/04/04 05:46:46;;;;;;;;;;;2.50;67.40;;;;;;9181340;19;19938;-68
2023/04/04 05:49:51;;;;;;;;;;;2.40;67.30;;;;;;9182675;19;19921;-68
2023/04/04 05:53:10;;;;;;;;;;;2.50;67.40;;;;;;9178974;19;19988;-69
2023/04/04 05:56:14;;;;;;;;;;;2.50;67.40;;;;;;9178365;19;19918;-68
2023/04/04 05:59:20;;;;;;;;;;;2.40;67.40;;;;;;9180945;19;19930;-69
2023/04/04 06:02:32;;;;;;;;;;;2.50;67.40;;;;;;9177871;19;19929;-69
2023/04/04 06:05:43;;;;;;;;;;;2.50;67.40;;;;;;9176412;19;19918;-68
2023/04/04 06:08:50;;;;;;;;;;;2.50;67.40;;;;;;9177153;19;19926;-69
2023/04/04 06:11:59;;;;;;;;;;;2.60;67.50;;;;;;9179638;19;19923;-69
2023/04/04 06:15:04;;;;;;;;;;;2.60;67.40;;;;;;9178510;19;19925;-69
2023/04/04 06:18:10;;;;;;;;;;;2.60;67.50;;;;;;9181078;19;19919;-68
2023/04/04 06:21:15;;;;;;;;;;;2.60;67.50;;;;;;9177745;19;19918;-69
2023/04/04 06:24:22;;;;;;;;;;;2.60;67.50;;;;;;9180318;19;19919;-68
2023/04/04 06:27:26;;;;;;;;;;;2.70;67.60;;;;;;9180408;19;19933;-69
2023/04/04 06:30:36;;;;;;;;;;;2.80;67.60;;;;;;9178476;19;19911;-67
2023/04/04 06:33:41;;;;;;;;;;;2.90;67.60;;;;;;9178468;19;20474;-67
2023/04/04 06:36:47;;;;;;;;;;;3.00;67.60;;;;;;9168885;19;19930;-67
2023/04/04 06:39:53;;;;;;;;;;;3.10;67.70;;;;;;9170527;19;19911;-67
2023/04/04 06:43:03;;;;;;;;;;;3.20;67.70;;;;;;9164597;19;19922;-62
2023/04/04 06:46:13;;;;;;;;;;;3.30;67.70;;;;;;9168252;19;19935;-62
2023/04/04 06:49:20;;;;;;;;;;;3.50;67.70;;;;;;9175143;19;19918;-63
2023/04/04 06:52:26;;;;;;;;;;;3.50;67.70;;;;;;9174192;19;19938;-62
2023/04/04 06:55:34;;;;;;;;;;;3.70;67.70;;;;;;9178956;19;20299;-63
2023/04/04 06:58:38;;;;;;;;;;;3.80;67.70;;;;;;9180138;19;19951;-62
2023/04/04 07:01:44;;;;;;;;;;;3.90;67.80;;;;;;9178825;19;19923;-63
2023/04/04 07:04:48;;;;;;;;;;;4.00;67.80;;;;;;9176979;19;19919;-62
2023/04/04 07:07:55;;;;;;;;;;;4.10;67.70;;;;;;9179834;19;19917;-63
2023/04/04 07:11:01;;;;;;;;;;;4.20;67.70;;;;;;9179280;19;19919;-62
2023/04/04 07:14:07;;;;;;;;;;;4.40;67.80;;;;;;9178596;19;19919;-63
2023/04/04 07:17:11;;;;;;;;;;;4.50;67.70;;;;;;9177587;19;20359;-63
2023/04/04 07:20:29;;;;;;;;;;;4.70;67.70;;;;;;9173560;19;20281;-62
2023/04/04 07:23:34;;;;;;;;;;;4.90;67.70;;;;;;9173569;19;19915;-63
2023/04/04 07:26:42;;;;;;;;;;;5.00;67.70;;;;;;9170685;19;19930;-63
2023/04/04 07:29:46;;;;;;;;;;;5.10;67.70;;;;;;9173395;19;19922;-63
2023/04/04 07:32:57;;;;;;;;;;;5.20;67.60;;;;;;9173205;19;19918;-63
2023/04/04 07:36:02;;;;;;;;;;;5.40;67.60;;;;;;9173756;19;19919;-62
2023/04/04 07:39:08;;;;;;;;;;;5.50;67.60;;;;;;9169882;19;20252;-63
2023/04/04 07:42:15;;;;;;;;;;;5.60;67.60;;;;;;9171566;19;19927;-63
2023/04/04 07:45:21;;;;;;;;;;;5.70;67.70;;;;;;9165078;19;19919;-63
2023/04/04 07:48:26;;;;;;;;;;;5.80;67.60;;;;;;9169053;19;19978;-63
2023/04/04 07:51:34;;;;;;;;;;;5.90;68.20;;;;;;9171639;19;19918;-62
2023/04/04 07:54:39;;;;;;;;;;;6.00;67.60;;;;;;9176710;19;19929;-62
2023/04/04 07:57:47;;;;;;;;;;;6.20;67.60;;;;;;9178632;19;20225;-62
2023/04/04 08:00:51;;;;;;;;;;;6.30;67.60;;;;;;9176621;19;19925;-62
2023/04/04 08:03:57;;;;;;;;;;;6.50;67.70;;;;;;9181231;19;19915;-61
2023/04/04 08:07:01;;;;;;;;;;;6.60;67.60;;;;;;9169423;19;19933;-62
2023/04/04 08:10:08;;;;;;;;;;;6.70;67.50;;;;;;9168671;19;19919;-62
2023/04/04 08:13:14;;;;;;;;;;;6.90;67.60;;;;;;9169519;19;19919;-62
2023/04/04 08:16:20;;;;;;;;;;;7.00;67.50;;;;;;9168264;19;19922;-62
2023/04/04 08:19:24;;;;;;;;;;;7.20;67.60;;;;;;9175252;19;19930;-63
2023/04/04 08:22:30;;;;;;;;;;;7.40;67.60;;;;;;9175388;19;19943;-63
2023/04/04 08:25:34;;;;;;;;;;;7.50;68.20;;;;;;9172234;19;19922;-63
2023/04/04 08:28:42;;;;;;;;;;;7.70;67.60;;;;;;9175572;19;19919;-63
2023/04/04 08:31:46;;;;;;;;;;;8.00;67.60;;;;;;9172732;19;19922;-63
2023/04/04 08:34:52;;;;;;;;;;;8.20;67.50;;;;;;9179005;19;19922;-63
2023/04/04 08:37:56;;;;;;;;;;;8.40;67.50;;;;;;9177387;19;19927;-63
2023/04/04 08:41:01;;;;;;;;;;;8.60;67.40;;;;;;9177032;19;19926;-63
2023/04/04 08:44:09;;;;;;;;;;;8.80;67.40;;;;;;9172781;19;20249;-63
2023/04/04 08:47:16;;;;;;;;;;;9.10;67.40;;;;;;9177144;19;19922;-63
2023/04/04 08:50:20;;;;;;;;;;;9.30;67.30;;;;;;9178596;19;19923;-63
2023/04/04 08:53:26;;;;;;;;;;;9.50;67.20;;;;;;9180408;19;19915;-63
2023/04/04 08:56:30;;;;;;;;;;;9.70;67.10;;;;;;9173262;19;19934;-63
2023/04/04 08:59:38;;;;;;;;;;;9.90;67.10;;;;;;9177210;19;19915;-68
2023/04/04 09:02:46;;;;;;;;;;;10.10;67.00;;;;;;9179683;19;19919;-68
2023/04/04 09:05:52;;;;;;;;;;;10.30;67.00;;;;;;9174755;19;19919;-69
2023/04/04 09:08:56;;;;;;;;;;;10.50;67.00;;;;;;9175509;19;19919;-70
2023/04/04 09:12:02;;;;;;;;;;;10.70;66.90;;;;;;9167458;19;20258;-70
2023/04/04 09:15:11;;;;;;;;;;;10.90;66.90;;;;;;9182183;19;20276;-70
2023/04/04 09:18:17;;;;;;;;;;;11.00;66.80;;;;;;9178611;19;19914;-70
2023/04/04 09:21:21;;;;;;;;;;;11.20;66.70;;;;;;9176447;19;19918;-70
2023/04/04 09:24:37;;;;;;;;;;;11.40;66.70;;;;;;9179066;19;19921;-70
2023/04/04 09:27:41;;;;;;;;;;;11.60;66.60;;;;;;9170022;19;20265;-72
2023/04/04 09:30:50;;;;;;;;;;;11.70;66.50;;;;;;9175998;19;20647;-73
2023/04/04 09:33:54;;;;;;;;;;;11.90;66.50;;;;;;9179782;19;19927;-73
2023/04/04 09:37:01;;;;;;;;;;;12.00;66.40;;;;;;9173308;19;19919;-70
2023/04/04 09:40:07;;;;;;;;;;;12.10;66.40;;;;;;9178236;19;20555;-75
2023/04/04 09:43:13;;;;;;;;;;;12.20;66.30;;;;;;9168701;19;19915;-71
2023/04/04 09:46:22;;;;;;;;;;;12.40;66.40;;;;;;9172196;19;19923;-70
2023/04/04 09:49:27;;;;;;;;;;;12.50;66.30;;;;;;9172331;19;19918;-72
2023/04/04 09:52:34;;;;;;;;;;;12.60;66.20;;;;;;9175539;19;19934;-73
2023/04/04 09:55:40;;;;;;;;;;;12.70;66.20;;;;;;9172170;19;19914;-72
2023/04/04 09:58:47;;;;;;;;;;;12.90;66.10;;;;;;9175522;19;19950;-73
2023/04/04 10:02:11;;;;;;;;;;;13.00;66.10;;;;;;9174522;19;19936;-72
2023/04/04 10:05:15;;;;;;;;;;;13.10;65.90;;;;;;9172668;19;20163;-74
2023/04/04 10:08:22;;;;;;;;;;;13.20;65.90;;;;;;9171320;19;19917;-72
2023/04/04 10:11:29;;;;;;;;;;;13.30;65.80;;;;;;9175255;19;19922;-68
2023/04/04 10:14:35;;;;;;;;;;;13.40;65.80;;;;;;9174662;19;20246;-68
2023/04/04 10:17:42;;;;;;;;;;;13.40;65.70;;;;;;9170585;19;20272;-67
2023/04/04 10:20:50;;;;;;;;;;;13.40;65.50;;;;;;9174284;19;19919;-70
2023/04/04 10:23:55;;;;;;;;;;;13.40;65.50;;;;;;9171720;19;20317;-69
2023/04/04 10:27:01;;;;;;;;;;;13.40;65.50;;;;;;9172131;19;20382;-67
2023/04/04 10:30:06;;;;;;;;;;;13.50;65.50;;;;;;9173233;19;19919;-68
2023/04/04 10:33:19;;;;;;;;;;;13.50;65.20;;;;;;9169835;19;20719;-66
2023/04/04 10:36:25;;;;;;;;;;;13.50;65.40;;;;;;9159073;19;19923;-66
2023/04/04 10:39:34;;;;;;;;;;;13.50;65.40;;;;;;9162098;19;20548;-66
2023/04/04 10:42:39;;;;;;;;;;;13.50;65.30;;;;;;9166815;19;19933;-65
2023/04/04 10:45:46;;;;;;;;;;;13.50;65.30;;;;;;9164799;19;19919;-65
2023/04/04 10:48:52;;;;;;;;;;;13.50;65.30;;;;;;9166584;19;19952;-65
2023/04/04 10:51:59;;;;;;;;;;;13.60;65.30;;;;;;9168015;19;20315;-65
2023/04/04 10:55:05;;;;;;;;;;;13.60;65.20;;;;;;9170401;19;19930;-66
2023/04/04 10:58:11;;;;;;;;;;;13.60;65.30;;;;;;9169812;19;19934;-65
2023/04/04 11:01:19;;;;;;;;;;;13.70;65.20;;;;;;9173966;19;19915;-65
2023/04/04 11:04:41;;;;;;;;;;;13.70;65.10;;;;;;9169554;19;20017;-65
2023/04/04 11:07:45;;;;;;;;;;;13.70;65.00;;;;;;9173017;19;20342;-65
2023/04/04 11:11:12;;;;;;;;;;;13.80;65.00;;;;;;9162803;19;19918;-66
2023/04/04 11:14:29;;;;;;;;;;;13.80;64.90;;;;;;9171780;19;19938;-67
2023/04/04 11:17:43;;;;;;;;;;;13.90;64.90;;;;;;9172059;19;20261;-66
2023/04/04 11:20:49;;;;;;;;;;;13.90;64.70;;;;;;9175412;19;19937;-66
2023/04/04 11:24:10;;;;;;;;;;;14.00;64.70;;;;;;9175837;19;19914;-66
2023/04/04 11:27:13;;;;;;;;;;;14.00;64.60;;;;;;9173302;19;19930;-69
2023/04/04 11:30:20;;;;;;;;;;;14.10;64.60;;;;;;9178960;19;19919;-65
2023/04/04 11:33:30;;;;;;;;;;;14.10;64.50;;;;;;9178142;19;19963;-67
2023/04/04 11:36:54;;;;;;;;;;;14.10;64.40;;;;;;9169581;19;19923;-68
2023/04/04 11:40:11;;;;;;;;;;;14.10;64.40;;;;;;9166637;19;19926;-68
2023/04/04 11:43:19;;;;;;;;;;;14.20;64.30;;;;;;9157118;19;19922;-73
2023/04/04 11:46:23;;;;;;;;;;;14.10;64.20;;;;;;9172447;19;19915;-73
2023/04/04 11:49:31;;;;;;;;;;;14.20;64.30;;;;;;9176786;19;19910;-74
2023/04/04 11:52:37;;;;;;;;;;;14.20;64.20;;;;;;9175322;19;19923;-71
2023/04/04 11:55:45;;;;;;;;;;;14.30;64.20;;;;;;9177601;19;19922;-71
2023/04/04 11:58:49;;;;;;;;;;;14.30;64.70;;;;;;9175392;19;20337;-67
2023/04/04 12:02:02;;;;;;;;;;;14.30;64.00;;;;;;9174924;19;19921;-67
2023/04/04 12:05:07;;;;;;;;;;;14.30;63.90;;;;;;9175410;19;19974;-67
2023/04/04 12:08:16;;;;;;;;;;;14.30;63.90;;;;;;9171636;19;19919;-68
2023/04/04 12:11:22;;;;;;;;;;;14.30;63.90;;;;;;9174722;19;19959;-68
2023/04/04 12:14:28;;;;;;;;;;;14.20;63.80;;;;;;9174625;19;19919;-68
2023/04/04 12:17:33;;;;;;;;;;;14.20;63.80;;;;;;9176776;19;19930;-68
2023/04/04 12:20:41;;;;;;;;;;;14.20;63.80;;;;;;9176509;19;19923;-68
2023/04/04 12:23:47;;;;;;;;;;;14.20;63.70;;;;;;9176530;19;20267;-67
2023/04/04 12:26:53;;;;;;;;;;;14.20;63.70;;;;;;9174994;19;20284;-68
2023/04/04 12:29:57;;;;;;;;;;;14.30;63.70;;;;;;9175118;19;19925;-68
2023/04/04 12:33:03;;;;;;;;;;;14.30;63.60;;;;;;9176312;19;20242;-68
2023/04/04 12:36:07;;;;;;;;;;;14.30;63.60;;;;;;9176194;19;19921;-68
2023/04/04 12:39:16;;;;;;;;;;;14.40;63.50;;;;;;9178040;19;19926;-68
2023/04/04 12:42:24;;;;;;;;;;;14.40;63.40;;;;;;9184656;19;19918;-69
2023/04/04 12:45:30;;;;;;;;;;;14.40;63.30;;;;;;9179472;19;19915;-69
2023/04/04 12:48:36;;;;;;;;;;;14.40;63.20;;;;;;9181502;19;19919;-68
2023/04/04 12:51:42;;;;;;;;;;;14.40;63.10;;;;;;9183391;19;19960;-67
2023/04/04 12:54:49;;;;;;;;;;;14.40;63.10;;;;;;9180537;19;20614;-72
2023/04/04 12:58:12;;;;;;;;;;;14.40;63.00;;;;;;9182048;19;19923;-71
2023/04/04 13:01:16;;;;;;;;;;;14.40;63.00;;;;;;9180738;19;20314;-73
2023/04/04 13:04:23;;;;;;;;;;;14.40;63.00;;;;;;9178492;19;19926;-71
2023/04/04 13:07:29;;;;;;;;;;;14.40;62.90;;;;;;9175377;19;19927;-75
2023/04/04 13:10:50;;;;;;;;;;;14.40;62.80;;;;;;9164844;19;19922;-72
2023/04/04 13:14:05;;;;;;;;;;;14.40;62.80;;;;;;9173619;19;19926;-71
2023/04/04 13:17:12;;;;;;;;;;;14.40;62.60;;;;;;9169372;19;20336;-74
2023/04/04 13:20:17;;;;;;;;;;;14.40;62.50;;;;;;9174869;19;20345;-76
2023/04/04 13:23:23;;;;;;;;;;;14.30;62.50;;;;;;9176617;19;19922;-76
2023/04/04 13:26:27;;;;;;;;;;;14.30;62.50;;;;;;9175916;19;19922;-75
2023/04/04 13:29:36;;;;;;;;;;;14.30;62.40;;;;;;9176991;19;19915;-72
2023/04/04 13:32:40;;;;;;;;;;;14.30;62.40;;;;;;9177203;19;19918;-74
2023/04/04 13:35:46;;;;;;;;;;;14.20;62.30;;;;;;9174958;19;20364;-72
2023/04/04 13:38:50;;;;;;;;;;;14.20;62.20;;;;;;9176114;19;19941;-74
2023/04/04 13:41:56;;;;;;;;;;;14.20;62.20;;;;;;9176372;19;20458;-75
2023/04/04 13:45:02;;;;;;;;;;;14.10;62.20;;;;;;9171999;19;19911;-76
2023/04/04 13:48:08;;;;;;;;;;;14.00;62.10;;;;;;9170504;19;19931;-75
2023/04/04 13:51:12;;;;;;;;;;;14.00;62.10;;;;;;9172596;19;19915;-74
2023/04/04 13:54:18;;;;;;;;;;;14.00;62.20;;;;;;9172817;19;19923;-74
2023/04/04 13:57:22;;;;;;;;;;;13.90;62.00;;;;;;9172708;19;20618;-74
2023/04/04 14:00:30;;;;;;;;;;;13.90;62.00;;;;;;9172077;19;20349;-74
2023/04/04 14:03:34;;;;;;;;;;;13.90;62.00;;;;;;9172516;19;19923;-73
2023/04/04 14:06:40;;;;;;;;;;;13.90;61.90;;;;;;9171849;19;19942;-73
2023/04/04 14:09:44;;;;;;;;;;;13.90;61.90;;;;;;9166441;19;19962;-72
2023/04/04 14:12:51;;;;;;;;;;;13.90;61.80;;;;;;9165558;19;19929;-74
2023/04/04 14:15:57;;;;;;;;;;;13.90;61.80;;;;;;9166270;19;21040;-76
2023/04/04 14:19:03;;;;;;;;;;;13.90;62.40;;;;;;9169824;19;19915;-73
2023/04/04 14:22:07;;;;;;;;;;;13.90;61.70;;;;;;9171850;19;19923;-73
2023/04/04 14:25:13;;;;;;;;;;;13.80;61.60;;;;;;9171545;19;19960;-74
2023/04/04 14:28:17;;;;;;;;;;;13.80;61.60;;;;;;9170787;19;19919;-77
2023/04/04 14:31:25;;;;;;;;;;;13.70;61.50;;;;;;9173771;19;19919;-77
2023/04/04 14:34:29;;;;;;;;;;;13.70;61.50;;;;;;9172229;19;20351;-79
2023/04/04 14:37:35;;;;;;;;;;;13.70;61.50;;;;;;9167460;19;19919;-78
2023/04/04 14:40:39;;;;;;;;;;;13.60;61.50;;;;;;9167389;19;19922;-78
2023/04/04 14:43:45;;;;;;;;;;;13.60;61.50;;;;;;9163339;19;20237;-77
2023/04/04 14:46:51;;;;;;;;;;;13.60;61.50;;;;;;9164832;19;19927;-77
2023/04/04 14:49:59;;;;;;;;;;;13.60;61.50;;;;;;9168439;19;19933;-75
2023/04/04 14:53:03;;;;;;;;;;;13.50;61.40;;;;;;9169100;19;20345;-72
2023/04/04 14:56:09;;;;;;;;;;;13.50;61.40;;;;;;9172277;19;19929;-77
2023/04/04 14:59:13;;;;;;;;;;;13.40;61.30;;;;;;9168456;19;19919;-75
2023/04/04 15:02:20;;;;;;;;;;;13.40;61.30;;;;;;9165636;19;20643;-76
2023/04/04 15:05:26;;;;;;;;;;;13.40;61.30;;;;;;9171604;19;19927;-76
2023/04/04 15:08:33;;;;;;;;;;;13.30;61.30;;;;;;9162934;19;19959;-75
2023/04/04 15:11:37;;;;;;;;;;;13.30;61.20;;;;;;9162635;19;19926;-76
2023/04/04 15:14:46;;;;;;;;;;;13.30;61.20;;;;;;9167206;19;19923;-77
2023/04/04 15:17:50;;;;;;;;;;;13.20;61.20;;;;;;9164735;19;19956;-74
2023/04/04 15:20:59;;;;;;;;;;;13.20;61.20;;;;;;9163810;19;19919;-74
2023/04/04 15:24:03;;;;;;;;;;;13.10;61.20;;;;;;9166614;19;19938;-73
2023/04/04 15:27:09;;;;;;;;;;;13.10;61.20;;;;;;9160882;19;20194;-71
2023/04/04 15:30:17;;;;;;;;;;;13.10;61.10;;;;;;9164587;19;19974;-73
2023/04/04 15:33:22;;;;;;;;;;;13.10;61.20;;;;;;9163911;19;19917;-72
2023/04/04 15:36:28;;;;;;;;;;;13.10;61.10;;;;;;9171536;19;20270;-71
2023/04/04 15:39:35;;;;;;;;;;;13.10;61.10;;;;;;9169038;19;19922;-70
2023/04/04 15:42:53;;;;;;;;;;;13.10;61.10;;;;;;9149219;19;19986;-73
2023/04/04 15:45:59;;;;;;;;;;;13.10;60.90;;;;;;9161099;19;20278;-70
2023/04/04 15:49:04;;;;;;;;;;;13.10;60.90;;;;;;9165990;19;19915;-71
2023/04/04 15:52:12;;;;;;;;;;;13.10;60.90;;;;;;9169840;19;20456;-69
2023/04/04 15:55:17;;;;;;;;;;;13.10;60.80;;;;;;9169937;19;20510;-69
2023/04/04 15:58:26;;;;;;;;;;;13.10;60.70;;;;;;9171031;19;19923;-69
2023/04/04 16:01:30;;;;;;;;;;;13.10;60.60;;;;;;9168628;19;19933;-68
2023/04/04 16:04:36;;;;;;;;;;;13.10;60.60;;;;;;9169898;19;19930;-70
2023/04/04 16:07:42;;;;;;;;;;;13.00;60.50;;;;;;9168220;19;20340;-70
2023/04/04 16:10:48;;;;;;;;;;;13.00;60.60;;;;;;9169197;19;19915;-70
2023/04/04 16:13:51;;;;;;;;;;;12.90;60.50;;;;;;9169242;19;20351;-70
2023/04/04 16:16:57;;;;;;;;;;;12.90;60.50;;;;;;9178427;19;20252;-69
2023/04/04 16:20:01;;;;;;;;;;;12.80;60.50;;;;;;9178310;19;20352;-69
2023/04/04 16:23:09;;;;;;;;;;;12.80;60.50;;;;;;9179125;19;19915;-70
2023/04/04 16:26:13;;;;;;;;;;;12.70;60.40;;;;;;9179314;19;19925;-70
2023/04/04 16:29:20;;;;;;;;;;;12.70;60.50;;;;;;9181953;19;19915;-69
2023/04/04 16:32:24;;;;;;;;;;;12.60;60.50;;;;;;9187475;19;19922;-70
2023/04/04 16:35:31;;;;;;;;;;;12.60;60.50;;;;;;9186261;19;19915;-71
2023/04/04 16:38:37;;;;;;;;;;;12.60;60.50;;;;;;9184628;19;20329;-70
2023/04/04 16:41:43;;;;;;;;;;;12.50;61.10;;;;;;9179523;19;20285;-70
2023/04/04 16:44:47;;;;;;;;;;;12.40;60.40;;;;;;9179874;19;19919;-70
2023/04/04 16:47:54;;;;;;;;;;;12.40;60.40;;;;;;9178549;19;19923;-70
2023/04/04 16:50:57;;;;;;;;;;;12.30;60.40;;;;;;9180317;19;19952;-70
2023/04/04 16:54:06;;;;;;;;;;;12.30;60.40;;;;;;9184262;19;19915;-70
2023/04/04 16:57:10;;;;;;;;;;;12.20;60.30;;;;;;9183700;19;19945;-70
2023/04/04 17:00:16;;;;;;;;;;;12.20;60.30;;;;;;9180547;19;19930;-70
2023/04/04 17:03:20;;;;;;;;;;;12.10;60.30;;;;;;9181700;19;20329;-70
2023/04/04 17:06:26;;;;;;;;;;;12.10;60.30;;;;;;9181508;19;20178;-70
2023/04/04 17:09:32;;;;;;;;;;;12.00;60.30;;;;;;9177039;19;19926;-70
2023/04/04 17:12:38;;;;;;;;;;;12.00;60.30;;;;;;9165653;19;19914;-76
2023/04/04 17:15:43;;;;;;;;;;;11.90;60.30;;;;;;9168055;19;19945;-73
2023/04/04 17:18:49;;;;;;;;;;;11.80;60.30;;;;;;9168099;19;19922;-73
2023/04/04 17:21:53;;;;;;;;;;;11.80;60.90;;;;;;9167921;19;19922;-73
2023/04/04 17:25:02;;;;;;;;;;;11.70;60.30;;;;;;9173661;19;19929;-73
2023/04/04 17:28:06;;;;;;;;;;;11.70;60.20;;;;;;9170632;19;19922;-73
2023/04/04 17:31:12;;;;;;;;;;;11.70;60.30;;;;;;9175726;19;19923;-72
2023/04/04 17:34:16;;;;;;;;;;;11.60;60.20;;;;;;9174728;19;19922;-73
2023/04/04 17:37:22;;;;;;;;;;;11.60;60.20;;;;;;9167085;19;19926;-72
2023/04/04 17:40:28;;;;;;;;;;;11.50;60.20;;;;;;9168398;19;19919;-72
2023/04/04 17:43:34;;;;;;;;;;;11.40;60.20;;;;;;9165096;19;20341;-72
2023/04/04 17:46:38;;;;;;;;;;;11.40;60.20;;;;;;9164383;19;19978;-73
2023/04/04 17:49:44;;;;;;;;;;;11.30;60.20;;;;;;9167579;19;19961;-72
2023/04/04 17:52:48;;;;;;;;;;;11.30;60.10;;;;;;9167574;19;19930;-72
2023/04/04 17:55:57;;;;;;;;;;;11.20;60.10;;;;;;9171504;19;19915;-73
2023/04/04 17:59:01;;;;;;;;;;;11.20;60.10;;;;;;9171971;19;19927;-73
2023/04/04 18:02:07;;;;;;;;;;;11.10;60.10;;;;;;9167692;19;19911;-72
2023/04/04 18:05:11;;;;;;;;;;;11.10;60.10;;;;;;9163698;19;20015;-73
2023/04/04 18:08:17;;;;;;;;;;;11.00;60.20;;;;;;9163809;19;19918;-72
2023/04/04 18:11:23;;;;;;;;;;;11.00;60.20;;;;;;9168323;19;19923;-73
2023/04/04 18:14:29;;;;;;;;;;;10.90;60.10;;;;;;9167452;19;20355;-72